createdAt,value
2022-08-11T00:01:27.366Z,101410.84
2022-08-11T00:04:01.153Z,101416.09
2022-08-11T00:06:39.378Z,101415.25
2022-08-11T00:09:16.810Z,101409.16
2022-08-11T00:11:46.200Z,101410.41
2022-08-11T00:14:20.238Z,101413.41
2022-08-11T00:17:05.882Z,101394.31
2022-08-11T00:20:12.751Z,101396.03
2022-08-11T00:22:25.077Z,101402.28
2022-08-11T00:24:58.546Z,101391.59
2022-08-11T00:27:34.340Z,101391.78
2022-08-11T00:30:02.667Z,101389.47
2022-08-11T00:32:30.764Z,101372.09
2022-08-11T00:35:53.663Z,101386.00
2022-08-11T00:37:50.749Z,101377.50
2022-08-11T00:40:42.142Z,101403.69
2022-08-11T00:43:20.042Z,101405.38
2022-08-11T00:46:11.457Z,101394.13
2022-08-11T00:48:50.383Z,101379.63
2022-08-11T00:52:04.013Z,101392.28
2022-08-11T00:54:39.073Z,101398.28
2022-08-11T00:57:38.243Z,101393.75
2022-08-11T01:00:11.315Z,101391.06
2022-08-11T01:02:57.112Z,101396.06
2022-08-11T01:05:58.415Z,101398.03
2022-08-11T01:09:22.328Z,101402.59
2022-08-11T01:12:39.448Z,101400.91
2022-08-11T01:15:22.017Z,101396.47
2022-08-11T01:18:28.410Z,101415.53
2022-08-11T01:21:23.953Z,101413.09
2022-08-11T01:24:38.470Z,101419.97
2022-08-11T01:27:26.751Z,101403.03
2022-08-11T01:30:16.058Z,101422.38
2022-08-11T01:33:28.538Z,101413.84
2022-08-11T01:36:16.425Z,101397.44
2022-08-11T01:39:05.221Z,101419.25
2022-08-11T01:42:22.246Z,101421.94
2022-08-11T01:44:52.544Z,101411.69
2022-08-11T01:47:53.003Z,101417.66
2022-08-11T01:51:01.799Z,101412.63
2022-08-11T01:53:44.487Z,101414.75
2022-08-11T01:56:34.474Z,101409.91
2022-08-11T01:59:28.197Z,101409.91
2022-08-11T02:02:43.267Z,101413.47
2022-08-11T02:05:31.841Z,101408.47
2022-08-11T02:08:18.303Z,101406.19
2022-08-11T02:11:35.487Z,101405.59
2022-08-11T02:14:25.058Z,101411.00
2022-08-11T02:17:18.331Z,101408.56
2022-08-11T02:20:28.973Z,101429.22
2022-08-11T02:24:05.667Z,101409.38
2022-08-11T02:26:20.472Z,101425.03
2022-08-11T02:28:56.415Z,101416.94
2022-08-11T02:32:24.025Z,101414.75
2022-08-11T02:35:01.613Z,101424.44
2022-08-11T02:37:34.533Z,101417.19
2022-08-11T02:40:16.976Z,101424.16
2022-08-11T02:42:47.568Z,101428.38
2022-08-11T02:45:31.423Z,101424.09
2022-08-11T02:48:27.439Z,101418.81
2022-08-11T02:51:21.865Z,101427.22
2022-08-11T02:54:21.305Z,101424.97
2022-08-11T02:56:57.334Z,101413.16
2022-08-11T02:59:56.871Z,101417.19
2022-08-11T03:02:28.019Z,101424.72
2022-08-11T03:05:17.115Z,101427.56
2022-08-11T03:08:10.687Z,101425.44
2022-08-11T03:11:41.351Z,101425.19
2022-08-11T03:14:52.359Z,101437.84
2022-08-11T03:17:28.441Z,101425.31
2022-08-11T03:20:21.644Z,101429.63
2022-08-11T03:23:06.378Z,101426.03
2022-08-11T03:26:06.924Z,101429.31
2022-08-11T03:28:51.650Z,101429.63
2022-08-11T03:31:34.591Z,101420.00
2022-08-11T03:34:09.293Z,101425.81
2022-08-11T03:37:14.817Z,101441.63
2022-08-11T03:39:38.047Z,101433.69
2022-08-11T03:42:56.558Z,101434.69
2022-08-11T03:45:49.427Z,101418.16
2022-08-11T03:48:21.754Z,101431.28
2022-08-11T03:51:01.132Z,101436.53
2022-08-11T03:53:43.343Z,101427.16
2022-08-11T03:56:42.375Z,101434.53
2022-08-11T03:59:34.987Z,101432.69
2022-08-11T04:02:21.078Z,101434.28
2022-08-11T04:05:14.799Z,101440.81
2022-08-11T04:07:57.209Z,101445.94
2022-08-11T04:11:02.303Z,101453.63
2022-08-11T04:14:19.419Z,101443.34
2022-08-11T04:17:13.794Z,101453.69
2022-08-11T04:19:59.231Z,101458.06
2022-08-11T04:23:04.585Z,101458.06
2022-08-11T04:25:34.563Z,101461.19
2022-08-11T04:28:49.710Z,101455.03
2022-08-11T04:31:51.800Z,101450.84
2022-08-11T04:34:55.027Z,101448.91
2022-08-11T04:38:08.729Z,101434.44
2022-08-11T04:40:36.227Z,101457.09
2022-08-11T04:43:24.062Z,101461.31
2022-08-11T04:46:18.773Z,101453.78
2022-08-11T04:49:34.319Z,101450.28
2022-08-11T04:52:41.965Z,101450.41
2022-08-11T04:55:58.933Z,101453.91
2022-08-11T04:59:29.716Z,101438.00
2022-08-11T05:02:17.233Z,101444.19
2022-08-11T05:05:28.316Z,101440.59
2022-08-11T05:08:29.673Z,101424.34
2022-08-11T05:11:22.030Z,101427.28
2022-08-11T05:14:32.054Z,101418.94
2022-08-11T05:17:27.552Z,101428.00
2022-08-11T05:20:13.680Z,101423.34
2022-08-11T05:23:09.294Z,101412.72
2022-08-11T05:26:44.800Z,101437.59
2022-08-11T05:29:19.892Z,101426.59
2022-08-11T05:32:18.844Z,101428.03
2022-08-11T05:34:56.488Z,101441.28
2022-08-11T05:37:29.747Z,101426.63
2022-08-11T05:40:31.018Z,101432.69
2022-08-11T05:43:19.823Z,101436.97
2022-08-11T05:46:23.679Z,101426.91
2022-08-11T05:49:11.354Z,101432.41
2022-08-11T05:52:05.465Z,101426.28
2022-08-11T05:55:06.007Z,101423.19
2022-08-11T05:57:49.942Z,101439.41
2022-08-11T06:00:20.433Z,101442.53
2022-08-11T06:02:57.738Z,101432.38
2022-08-11T06:05:38.471Z,101441.25
2022-08-11T06:08:13.874Z,101438.88
2022-08-11T06:10:45.057Z,101453.00
2022-08-11T06:13:16.740Z,101455.03
2022-08-11T06:15:53.046Z,101449.78
2022-08-11T06:18:21.024Z,101457.81
2022-08-11T06:20:54.232Z,101461.03
2022-08-11T06:23:24.161Z,101452.63
2022-08-11T06:25:56.188Z,101455.53
2022-08-11T06:28:37.263Z,101449.09
2022-08-11T06:31:17.574Z,101456.53
2022-08-11T06:33:51.099Z,101463.78
2022-08-11T06:36:37.076Z,101456.53
2022-08-11T06:39:32.991Z,101453.19
2022-08-11T06:42:10.960Z,101447.75
2022-08-11T06:44:48.352Z,101455.88
2022-08-11T06:47:17.232Z,101462.22
2022-08-11T06:50:04.705Z,101470.56
2022-08-11T06:52:39.167Z,101467.16
2022-08-11T06:55:55.271Z,101466.69
2022-08-11T06:58:17.986Z,101467.13
2022-08-11T07:00:49.043Z,101453.06
2022-08-11T07:03:19.722Z,101466.13
2022-08-11T07:06:06.218Z,101458.56
2022-08-11T07:09:21.487Z,101462.06
2022-08-11T07:12:41.700Z,101467.69
2022-08-11T07:16:11.674Z,101462.56
2022-08-11T07:18:50.596Z,101466.81
2022-08-11T07:22:01.413Z,101473.19
2022-08-11T07:24:59.704Z,101454.44
2022-08-11T07:27:56.276Z,101464.59
2022-08-11T07:30:26.295Z,101458.31
2022-08-11T07:32:57.066Z,101464.53
2022-08-11T07:35:49.888Z,101465.72
2022-08-11T07:38:25.502Z,101468.72
2022-08-11T07:40:53.168Z,101463.19
2022-08-11T07:43:20.581Z,101463.97
2022-08-11T07:46:06.665Z,101445.19
2022-08-11T07:48:53.735Z,101456.75
2022-08-11T07:51:40.160Z,101458.69
2022-08-11T07:54:17.121Z,101460.22
2022-08-11T07:57:07.177Z,101435.81
2022-08-11T08:00:00.906Z,101458.72
2022-08-11T08:03:02.283Z,101456.25
2022-08-11T08:05:49.025Z,101457.84
2022-08-11T08:08:35.554Z,101458.88
2022-08-11T08:11:27.068Z,101461.53
2022-08-11T08:14:14.566Z,101456.06
2022-08-11T08:17:01.627Z,101456.41
2022-08-11T08:19:29.852Z,101450.56
2022-08-11T08:22:11.023Z,101449.94
2022-08-11T08:24:46.542Z,101448.00
2022-08-11T08:27:14.976Z,101449.25
2022-08-11T08:30:03.810Z,101457.78
2022-08-11T08:32:32.482Z,101451.09
2022-08-11T08:35:00.941Z,101455.91
2022-08-11T08:37:45.450Z,101454.19
2022-08-11T08:40:15.076Z,101434.59
2022-08-11T08:43:07.357Z,101444.13
2022-08-11T08:45:37.880Z,101443.31
2022-08-11T08:48:11.820Z,101441.22
2022-08-11T08:51:22.658Z,101438.28
2022-08-11T08:53:53.954Z,101429.56
2022-08-11T08:56:28.489Z,101446.28
2022-08-11T08:58:59.745Z,101440.50
2022-08-11T09:01:31.265Z,101432.75
2022-08-11T09:04:06.814Z,101434.31
2022-08-11T09:06:43.067Z,101429.13
2022-08-11T09:09:14.750Z,101428.22
2022-08-11T09:11:56.126Z,101430.22
2022-08-11T09:14:49.761Z,101426.84
2022-08-11T09:17:24.621Z,101429.97
2022-08-11T09:20:00.387Z,101415.13
2022-08-11T09:23:29.609Z,101426.53
2022-08-11T09:26:00.610Z,101418.91
2022-08-11T09:28:31.708Z,101422.66
2022-08-11T09:31:01.845Z,101422.66
2022-08-11T09:33:31.792Z,101417.03
2022-08-11T09:36:21.110Z,101415.81
2022-08-11T09:39:07.573Z,101409.38
2022-08-11T09:42:00.730Z,101412.97
2022-08-11T09:44:43.544Z,101397.94
2022-08-11T09:47:15.559Z,101409.66
2022-08-11T09:49:45.465Z,101392.09
2022-08-11T09:52:14.446Z,101401.22
2022-08-11T09:54:43.509Z,101402.63
2022-08-11T09:57:38.427Z,101397.34
2022-08-11T10:00:12.552Z,101390.63
2022-08-11T10:02:47.456Z,101384.94
2022-08-11T10:05:38.161Z,101399.25
2022-08-11T10:08:07.743Z,101402.47
2022-08-11T10:10:38.041Z,101400.63
2022-08-11T10:14:32.080Z,101387.97
2022-08-11T10:16:15.826Z,101390.88
2022-08-11T10:18:52.997Z,101374.59
2022-08-11T10:21:24.285Z,101384.75
2022-08-11T10:24:12.034Z,101377.97
2022-08-11T10:26:54.630Z,101376.03
2022-08-11T10:29:52.177Z,101377.16
2022-08-11T10:32:51.048Z,101384.28
2022-08-11T10:35:29.677Z,101354.03
2022-08-11T10:38:08.144Z,101369.34
2022-08-11T10:40:41.557Z,101362.41
2022-08-11T10:43:14.232Z,101363.25
2022-08-11T10:46:04.052Z,101371.56
2022-08-11T10:48:38.023Z,101365.16
2022-08-11T10:51:23.824Z,101359.00
2022-08-11T10:54:22.850Z,101338.84
2022-08-11T10:57:08.799Z,101342.91
2022-08-11T10:59:36.321Z,101370.66
2022-08-11T11:02:03.974Z,101357.31
2022-08-11T11:05:00.572Z,101356.25
2022-08-11T11:07:44.190Z,101351.91
2022-08-11T11:10:11.813Z,101349.41
2022-08-11T11:13:05.118Z,101354.47
2022-08-11T11:15:54.703Z,101352.88
2022-08-11T11:18:25.611Z,101359.09
2022-08-11T11:21:00.381Z,101347.03
2022-08-11T11:23:47.532Z,101353.31
2022-08-11T11:26:56.273Z,101346.69
2022-08-11T11:29:42.585Z,101349.56
2022-08-11T11:32:28.266Z,101344.31
2022-08-11T11:35:20.935Z,101355.75
2022-08-11T11:38:00.013Z,101336.25
2022-08-11T11:40:32.975Z,101349.94
2022-08-11T11:43:01.218Z,101343.50
2022-08-11T11:45:28.884Z,101347.69
2022-08-11T11:47:59.507Z,101335.44
2022-08-11T11:50:34.561Z,101343.88
2022-08-11T11:53:06.107Z,101344.50
2022-08-11T11:55:33.631Z,101336.47
2022-08-11T11:58:41.570Z,101337.66
2022-08-11T12:01:20.305Z,101329.88
2022-08-11T12:03:50.672Z,101335.81
2022-08-11T12:06:22.062Z,101331.06
2022-08-11T12:08:51.977Z,101331.81
2022-08-11T12:11:40.233Z,101326.97
2022-08-11T12:14:11.662Z,101336.13
2022-08-11T12:16:42.427Z,101316.50
2022-08-11T12:19:23.003Z,101334.69
2022-08-11T12:22:10.929Z,101335.53
2022-08-11T12:24:58.000Z,101329.25
2022-08-11T12:27:27.702Z,101317.41
2022-08-11T12:30:00.235Z,101325.03
2022-08-11T12:32:30.886Z,101317.16
2022-08-11T12:34:58.932Z,101319.38
2022-08-11T12:37:35.422Z,101319.44
2022-08-11T12:40:43.445Z,101319.44
2022-08-11T12:43:39.964Z,101312.41
2022-08-11T12:49:07.081Z,101317.38
2022-08-11T12:52:14.418Z,101308.47
2022-08-11T12:54:56.521Z,101294.78
2022-08-11T12:57:48.366Z,101300.22
2022-08-11T13:00:36.072Z,101302.88
2022-08-11T13:03:24.336Z,101301.00
2022-08-11T13:05:55.679Z,101274.88
2022-08-11T13:08:25.578Z,101287.25
2022-08-11T13:11:13.400Z,101297.03
2022-08-11T13:13:54.541Z,101276.06
2022-08-11T13:16:29.220Z,101277.22
2022-08-11T13:19:01.532Z,101263.75
2022-08-11T13:21:29.482Z,101276.69
2022-08-11T13:24:00.929Z,101275.38
2022-08-11T13:26:47.595Z,101272.66
2022-08-11T13:29:26.649Z,101260.56
2022-08-11T13:31:57.045Z,101259.09
2022-08-11T13:34:27.039Z,101247.75
2022-08-11T13:37:01.076Z,101271.28
2022-08-11T13:39:31.203Z,101262.34
2022-08-11T13:42:00.641Z,101247.50
2022-08-11T13:44:31.513Z,101253.38
2022-08-11T13:47:04.113Z,101238.78
2022-08-11T13:49:35.685Z,101249.75
2022-08-11T13:52:04.755Z,101251.34
2022-08-11T13:54:35.384Z,101247.13
2022-08-11T13:57:09.076Z,101242.13
2022-08-11T13:59:51.894Z,101220.44
2022-08-11T14:02:30.724Z,101237.03
2022-08-11T14:05:04.260Z,101218.00
2022-08-11T14:07:48.075Z,101228.53
2022-08-11T14:10:17.669Z,101207.44
2022-08-11T14:13:12.594Z,101226.34
2022-08-11T14:15:45.530Z,101211.00
2022-08-11T14:18:30.391Z,101224.03
2022-08-11T14:21:19.844Z,101192.06
2022-08-11T14:23:51.066Z,101194.03
2022-08-11T14:26:29.628Z,101222.47
2022-08-11T14:29:05.906Z,101225.84
2022-08-11T14:31:35.861Z,101209.66
2022-08-11T14:34:05.564Z,101205.00
2022-08-11T14:36:38.054Z,101190.47
2022-08-11T14:39:13.478Z,101213.53
2022-08-11T14:42:11.941Z,101208.00
2022-08-11T14:45:22.616Z,101205.78
2022-08-11T14:47:53.459Z,101206.81
2022-08-11T14:50:26.787Z,101196.78
2022-08-11T14:53:00.546Z,101211.56
2022-08-11T14:55:50.507Z,101202.78
2022-08-11T14:58:21.444Z,101203.50
2022-08-11T15:01:00.153Z,101193.22
2022-08-11T15:03:30.846Z,101218.69
2022-08-11T15:06:02.327Z,101210.22
2022-08-11T15:08:51.448Z,101225.63
2022-08-11T15:11:40.178Z,101224.03
2022-08-11T15:14:09.898Z,101212.09
2022-08-11T15:16:59.533Z,101226.78
2022-08-11T15:19:37.506Z,101227.53
2022-08-11T15:22:29.555Z,101216.00
2022-08-11T15:24:59.972Z,101234.19
2022-08-11T15:27:49.719Z,101219.13
2022-08-11T15:30:35.732Z,101223.03
2022-08-11T15:33:25.535Z,101223.03
2022-08-11T15:36:13.010Z,101210.38
2022-08-11T15:38:46.275Z,101219.22
2022-08-11T15:41:35.765Z,101218.75
2022-08-11T15:44:51.353Z,101195.88
2022-08-11T15:47:18.696Z,101188.72
2022-08-11T15:50:11.027Z,101220.00
2022-08-11T15:52:47.306Z,101226.06
2022-08-11T15:55:16.422Z,101213.34
2022-08-11T15:58:05.662Z,101224.06
2022-08-11T16:01:02.005Z,101207.09
2022-08-11T16:04:08.005Z,101202.56
2022-08-11T16:06:49.539Z,101222.66
2022-08-11T16:10:00.244Z,101221.69
2022-08-11T16:12:37.269Z,101201.63
2022-08-11T16:15:26.724Z,101214.81
2022-08-11T16:17:59.368Z,101216.69
2022-08-11T16:20:28.353Z,101212.75
2022-08-11T16:23:04.930Z,101197.19
2022-08-11T16:27:06.062Z,101207.56
2022-08-11T16:28:26.779Z,101197.47
2022-08-11T16:30:55.335Z,101198.53
2022-08-11T16:33:49.916Z,101204.66
2022-08-11T16:36:32.994Z,101213.13
2022-08-11T16:39:01.801Z,101205.00
2022-08-11T16:41:51.183Z,101195.81
2022-08-11T16:44:38.465Z,101201.03
2022-08-11T16:47:08.619Z,101190.00
2022-08-11T16:49:39.670Z,101183.59
2022-08-11T16:52:11.839Z,101200.56
2022-08-11T16:54:40.784Z,101206.31
2022-08-11T16:57:45.286Z,101195.81
2022-08-11T17:00:15.507Z,101214.03
2022-08-11T17:03:05.410Z,101197.91
2022-08-11T17:05:55.233Z,101204.94
2022-08-11T17:08:57.529Z,101189.38
2022-08-11T17:11:49.819Z,101207.00
2022-08-11T17:14:35.318Z,101194.31
2022-08-11T17:17:13.052Z,101196.75
2022-08-11T17:20:39.718Z,101199.28
2022-08-11T17:22:56.569Z,101182.16
2022-08-11T17:25:28.521Z,101194.03
2022-08-11T17:27:56.921Z,101200.72
2022-08-11T17:30:46.517Z,101177.34
2022-08-11T17:33:34.299Z,101184.56
2022-08-11T17:36:02.795Z,101189.84
2022-08-11T17:38:32.162Z,101184.56
2022-08-11T17:41:30.958Z,101179.72
2022-08-11T17:44:18.482Z,101185.00
2022-08-11T17:47:06.601Z,101170.75
2022-08-11T17:49:37.831Z,101180.69
2022-08-11T17:52:33.242Z,101194.63
2022-08-11T17:55:50.947Z,101184.56
2022-08-11T17:58:29.028Z,101192.84
2022-08-11T18:01:01.976Z,101187.06
2022-08-11T18:03:40.021Z,101192.22
2022-08-11T18:06:12.301Z,101194.56
2022-08-11T18:09:03.455Z,101190.69
2022-08-11T18:12:06.081Z,101172.47
2022-08-11T18:14:57.859Z,101191.69
2022-08-11T18:17:43.847Z,101188.16
2022-08-11T18:20:29.882Z,101190.44
2022-08-11T18:23:18.375Z,101190.47
2022-08-11T18:26:07.246Z,101188.31
2022-08-11T18:29:04.199Z,101193.25
2022-08-11T18:31:55.695Z,101178.72
2022-08-11T18:34:51.686Z,101187.22
2022-08-11T18:37:45.808Z,101200.53
2022-08-11T18:40:42.909Z,101199.16
2022-08-11T18:43:31.531Z,101189.66
2022-08-11T18:46:24.952Z,101203.44
2022-08-11T18:49:17.304Z,101208.38
2022-08-11T18:52:07.499Z,101215.34
2022-08-11T18:54:56.211Z,101211.44
2022-08-11T18:57:53.755Z,101184.91
2022-08-11T19:00:42.604Z,101184.59
2022-08-11T19:03:38.204Z,101201.91
2022-08-11T19:06:40.548Z,101184.56
2022-08-11T19:09:35.749Z,101203.59
2022-08-11T19:12:25.118Z,101185.25
2022-08-11T19:15:12.373Z,101228.09
2022-08-11T19:18:01.658Z,101216.91
2022-08-11T19:20:51.441Z,101189.66
2022-08-11T19:23:52.250Z,101224.84
2022-08-11T19:26:39.232Z,101214.16
2022-08-11T19:30:07.786Z,101169.09
2022-08-11T19:32:35.827Z,101184.56
2022-08-11T19:35:23.851Z,101213.78
2022-08-11T19:38:11.664Z,101213.28
2022-08-11T19:40:58.755Z,101176.19
2022-08-11T19:43:46.848Z,101197.13
2022-08-11T19:46:34.790Z,101207.50
2022-08-11T19:49:22.521Z,101207.84
2022-08-11T19:52:10.348Z,101208.88
2022-08-11T19:54:58.014Z,101184.72
2022-08-11T19:57:45.212Z,101173.81
2022-08-11T20:00:35.495Z,101202.56
2022-08-11T20:03:24.486Z,101204.56
2022-08-11T20:06:11.526Z,101205.53
2022-08-11T20:09:01.397Z,101212.66
2022-08-11T20:11:53.727Z,101211.63
2022-08-11T20:14:40.940Z,101198.50
2022-08-11T20:17:28.608Z,101200.84
2022-08-11T20:20:18.638Z,101180.00
2022-08-11T20:23:07.727Z,101195.47
2022-08-11T20:25:59.160Z,101199.06
2022-08-11T20:28:55.855Z,101176.59
2022-08-11T20:31:43.001Z,101187.31
2022-08-11T20:34:30.170Z,101178.94
2022-08-11T20:37:20.088Z,101220.69
2022-08-11T20:40:08.459Z,101201.63
2022-08-11T20:42:55.450Z,101189.94
2022-08-11T20:45:52.075Z,101226.00
2022-08-11T20:48:50.526Z,101231.59
2022-08-11T20:51:38.969Z,101233.56
2022-08-11T20:54:42.964Z,101235.94
2022-08-11T20:58:00.239Z,101203.09
2022-08-11T21:00:44.009Z,101236.00
2022-08-11T21:03:36.167Z,101238.25
2022-08-11T21:06:33.535Z,101244.78
2022-08-11T21:09:57.985Z,101239.84
2022-08-11T21:15:46.982Z,101246.56
2022-08-11T21:18:35.348Z,101206.81
2022-08-11T21:21:25.274Z,101240.34
2022-08-11T21:24:15.644Z,101243.75
2022-08-11T21:27:05.936Z,101212.72
2022-08-11T21:29:53.718Z,101243.44
2022-08-11T21:32:42.350Z,101226.81
2022-08-11T21:35:29.592Z,101218.75
2022-08-11T21:38:17.768Z,101238.22
2022-08-11T21:41:06.644Z,101226.56
2022-08-11T21:43:54.696Z,101228.66
2022-08-11T21:46:42.761Z,101248.97
2022-08-11T21:49:30.544Z,101230.44
2022-08-11T21:52:16.675Z,101235.88
2022-08-11T21:55:02.974Z,101226.50
2022-08-11T21:57:50.510Z,101225.66
2022-08-11T22:00:36.890Z,101251.03
2022-08-11T22:03:23.863Z,101231.69
2022-08-11T22:06:12.414Z,101211.25
2022-08-11T22:08:58.584Z,101208.16
2022-08-11T22:11:44.710Z,101249.66
2022-08-11T22:14:30.615Z,101245.41
2022-08-11T22:17:16.858Z,101238.81
2022-08-11T22:20:03.524Z,101208.69
2022-08-11T22:22:53.112Z,101232.72
2022-08-11T22:25:52.212Z,101235.47
2022-08-11T22:28:44.725Z,101237.19
2022-08-11T22:31:30.873Z,101197.31
2022-08-11T22:34:17.017Z,101206.13
2022-08-11T22:37:04.782Z,101217.03
2022-08-11T22:40:01.735Z,101238.81
2022-08-11T22:42:50.765Z,101188.94
2022-08-11T22:45:37.774Z,101217.38
2022-08-11T22:48:24.320Z,101214.41
2022-08-11T22:51:11.531Z,101233.94
2022-08-11T22:53:59.339Z,101217.28
2022-08-11T22:56:47.222Z,101222.69
2022-08-11T22:59:34.902Z,101224.28
2022-08-11T23:02:23.751Z,101221.03
2022-08-11T23:05:10.749Z,101230.13
2022-08-11T23:07:58.295Z,101225.41
2022-08-11T23:10:45.382Z,101188.78
2022-08-11T23:13:33.988Z,101199.28
2022-08-11T23:16:20.428Z,101206.38
2022-08-11T23:19:07.618Z,101202.53
2022-08-11T23:21:54.127Z,101179.88
2022-08-11T23:24:41.222Z,101224.63
2022-08-11T23:27:27.721Z,101177.84
2022-08-11T23:30:18.823Z,101179.56
2022-08-11T23:33:09.859Z,101202.25
2022-08-11T23:36:02.306Z,101199.53
2022-08-11T23:38:51.723Z,101200.56
2022-08-11T23:41:38.850Z,101191.34
2022-08-11T23:44:26.611Z,101159.66
2022-08-11T23:47:15.273Z,101200.16
2022-08-11T23:50:02.450Z,101188.38
2022-08-11T23:52:49.181Z,101202.00
2022-08-11T23:55:38.986Z,101212.00
2022-08-11T23:58:25.811Z,101210.31
